createdAt,value
2022-12-26T00:01:13.387Z,68.08
2022-12-26T00:03:40.172Z,68.12
2022-12-26T00:21:58.766Z,70.19
2022-12-26T00:24:25.342Z,68.73
2022-12-26T00:26:51.881Z,67.72
2022-12-26T00:29:18.514Z,69.07
2022-12-26T00:31:45.233Z,68.85
2022-12-26T00:34:36.910Z,68.36
2022-12-26T00:37:03.455Z,67.80
2022-12-26T00:39:29.989Z,68.03
2022-12-26T00:41:56.577Z,69.33
2022-12-26T00:44:38.477Z,69.56
2022-12-26T00:51:05.765Z,68.86
2022-12-26T00:53:33.171Z,67.95
2022-12-26T00:55:59.814Z,68.13
2022-12-26T00:58:27.063Z,68.23
2022-12-26T01:01:20.403Z,68.88
2022-12-26T01:04:15.315Z,68.32
2022-12-26T01:06:42.140Z,72.42
2022-12-26T01:09:12.024Z,70.56
2022-12-26T01:11:41.551Z,72.88
2022-12-26T01:14:12.513Z,71.04
2022-12-26T01:26:15.235Z,72.12
2022-12-26T01:28:46.138Z,72.04
2022-12-26T01:31:12.762Z,71.11
2022-12-26T01:38:49.843Z,69.62
2022-12-26T01:41:17.019Z,69.86
2022-12-26T01:43:49.952Z,69.56
2022-12-26T01:50:33.873Z,69.89
2022-12-26T01:53:09.145Z,69.82
2022-12-26T01:55:37.299Z,72.24
2022-12-26T01:58:10.412Z,70.83
2022-12-26T02:00:37.848Z,70.16
2022-12-26T02:03:51.574Z,71.16
2022-12-26T02:06:21.713Z,72.02
2022-12-26T02:08:48.518Z,72.20
2022-12-26T02:24:40.972Z,71.07
2022-12-26T02:27:25.715Z,71.32
2022-12-26T02:30:07.273Z,73.05
2022-12-26T02:32:42.821Z,73.07
2022-12-26T02:35:37.179Z,72.59
2022-12-26T02:38:34.598Z,73.19
2022-12-26T02:41:29.249Z,73.91
2022-12-26T02:45:12.104Z,74.52
2022-12-26T02:48:35.435Z,77.84
2022-12-26T02:51:43.765Z,77.07
2022-12-26T02:54:41.334Z,75.33
2022-12-26T02:57:32.906Z,74.42
2022-12-26T03:03:58.043Z,73.78
2022-12-26T03:06:50.315Z,74.35
2022-12-26T03:09:40.295Z,73.74
2022-12-26T03:12:49.509Z,73.04
2022-12-26T03:15:19.713Z,73.71
2022-12-26T03:18:14.748Z,73.30
2022-12-26T03:35:36.324Z,73.47
2022-12-26T03:38:15.071Z,74.11
2022-12-26T03:41:12.106Z,74.44
2022-12-26T03:44:10.931Z,74.28
2022-12-26T03:47:45.375Z,74.49
2022-12-26T03:50:39.730Z,75.75
2022-12-26T03:53:35.124Z,76.10
2022-12-26T03:56:37.764Z,75.80
2022-12-26T03:59:49.427Z,77.14
2022-12-26T04:03:04.081Z,76.26
2022-12-26T04:05:49.750Z,76.14
2022-12-26T04:08:42.655Z,77.00
2022-12-26T04:11:35.566Z,75.92
2022-12-26T04:18:33.875Z,76.56
2022-12-26T04:21:48.386Z,75.25
2022-12-26T04:24:52.022Z,75.83
2022-12-26T04:27:40.171Z,76.06
2022-12-26T04:30:26.107Z,75.91
2022-12-26T04:41:40.317Z,78.01
2022-12-26T04:52:11.872Z,79.48
2022-12-26T04:54:42.953Z,80.10
2022-12-26T04:57:11.534Z,80.44
2022-12-26T04:59:38.183Z,79.22
2022-12-26T05:02:45.403Z,79.43
2022-12-26T05:05:30.858Z,79.01
2022-12-26T05:08:23.512Z,77.69
2022-12-26T05:10:50.167Z,80.01
2022-12-26T05:17:34.799Z,80.01
2022-12-26T05:34:04.643Z,80.19
2022-12-26T05:36:36.013Z,78.96
2022-12-26T05:39:03.820Z,80.94
2022-12-26T05:41:30.617Z,79.14
2022-12-26T05:43:57.398Z,78.85
2022-12-26T05:46:54.602Z,77.87
2022-12-26T05:49:49.192Z,77.42
2022-12-26T05:52:34.436Z,77.27
2022-12-26T05:55:01.042Z,76.42
2022-12-26T05:57:27.603Z,75.75
2022-12-26T05:59:54.155Z,76.51
2022-12-26T06:02:20.923Z,76.45
2022-12-26T06:04:47.513Z,76.36
2022-12-26T07:11:21.597Z,74.12
2022-12-26T07:13:48.302Z,74.49
2022-12-26T07:16:15.463Z,74.33
2022-12-26T07:35:43.162Z,74.39
2022-12-26T08:24:21.802Z,74.55
2022-12-26T08:35:00.965Z,75.08
2022-12-26T08:52:16.416Z,73.74
2022-12-26T08:54:44.575Z,72.36
2022-12-26T08:57:12.820Z,72.28
2022-12-26T09:07:44.781Z,71.96
2022-12-26T09:39:24.248Z,70.22
2022-12-26T09:46:16.294Z,73.05
2022-12-26T09:48:58.160Z,70.92
2022-12-26T09:54:21.629Z,70.44
2022-12-26T09:57:02.292Z,70.37
2022-12-26T09:59:34.438Z,69.30
2022-12-26T10:11:11.465Z,70.25
2022-12-26T10:14:08.550Z,68.85
2022-12-26T10:16:55.402Z,70.24
2022-12-26T10:27:49.448Z,69.68
2022-12-26T10:30:39.478Z,69.37
2022-12-26T10:33:17.776Z,69.53
2022-12-26T10:35:46.021Z,69.10
2022-12-26T10:38:55.852Z,68.70
2022-12-26T10:41:48.128Z,67.09
2022-12-26T10:44:16.100Z,68.21
2022-12-26T10:47:29.762Z,68.63
2022-12-26T10:49:59.913Z,67.98
2022-12-26T10:52:49.226Z,67.18
2022-12-26T10:55:28.857Z,66.22
2022-12-26T11:01:49.949Z,65.89
2022-12-26T11:04:53.032Z,66.93
2022-12-26T11:07:17.604Z,66.91
2022-12-26T11:09:45.797Z,66.06
2022-12-26T11:12:40.202Z,67.74
2022-12-26T11:15:31.858Z,67.35
2022-12-26T11:18:25.362Z,68.22
2022-12-26T11:20:51.858Z,67.38
2022-12-26T11:23:33.664Z,68.69
2022-12-26T11:29:42.850Z,68.98
2022-12-26T11:32:19.080Z,69.49
2022-12-26T11:34:48.308Z,67.90
2022-12-26T11:37:29.045Z,67.47
2022-12-26T11:39:57.207Z,67.90
2022-12-26T11:42:26.144Z,70.40
2022-12-26T11:45:23.705Z,69.82
2022-12-26T11:47:50.843Z,68.74
2022-12-26T11:50:21.548Z,66.83
2022-12-26T11:52:52.830Z,66.42
2022-12-26T11:59:28.565Z,65.50
2022-12-26T12:02:17.228Z,66.14
2022-12-26T12:04:46.278Z,66.72
2022-12-26T12:07:34.278Z,65.43
2022-12-26T12:10:13.116Z,66.00
2022-12-26T12:13:11.501Z,65.13
2022-12-26T12:15:57.711Z,65.70
2022-12-26T12:19:21.003Z,65.19
2022-12-26T12:22:08.829Z,65.29
2022-12-26T12:29:12.201Z,65.63
2022-12-26T12:31:46.451Z,64.89
2022-12-26T12:34:34.542Z,64.56
2022-12-26T12:37:25.401Z,65.39
2022-12-26T12:40:22.695Z,64.91
2022-12-26T12:43:50.943Z,64.67
2022-12-26T12:46:54.703Z,63.91
2022-12-26T12:52:21.282Z,65.33
2022-12-26T12:58:24.914Z,64.68
2022-12-26T13:01:02.904Z,65.74
2022-12-26T13:03:38.857Z,65.86
2022-12-26T13:06:46.255Z,67.02
2022-12-26T13:09:15.968Z,65.72
2022-12-26T13:11:49.012Z,64.81
2022-12-26T13:14:59.834Z,65.10
2022-12-26T13:17:48.844Z,66.48
2022-12-26T13:20:22.642Z,67.64
2022-12-26T13:29:49.671Z,66.61
2022-12-26T13:35:49.338Z,66.81
2022-12-26T13:38:15.965Z,67.54
2022-12-26T13:40:47.937Z,67.10
2022-12-26T13:45:56.510Z,66.67
2022-12-26T13:48:32.374Z,66.73
2022-12-26T13:51:04.881Z,66.64
2022-12-26T13:53:33.049Z,66.90
2022-12-26T13:56:46.020Z,66.33
2022-12-26T14:00:14.619Z,66.01
2022-12-26T14:03:19.085Z,66.39
2022-12-26T14:15:19.672Z,66.89
2022-12-26T14:18:46.750Z,67.86
2022-12-26T14:38:28.511Z,67.79
2022-12-26T14:41:03.911Z,67.62
2022-12-26T14:43:37.660Z,67.48
2022-12-26T14:47:19.984Z,67.84
2022-12-26T14:55:45.481Z,68.52
2022-12-26T15:02:06.838Z,68.56
2022-12-26T15:04:46.684Z,68.63
2022-12-26T15:08:01.456Z,68.59
2022-12-26T15:10:50.461Z,69.19
2022-12-26T15:13:37.626Z,69.30
2022-12-26T15:16:48.243Z,69.49
2022-12-26T15:19:52.962Z,70.09
2022-12-26T15:42:12.035Z,70.75
2022-12-26T15:44:57.121Z,70.75
2022-12-26T15:48:13.760Z,70.94
2022-12-26T16:04:38.528Z,73.13
2022-12-26T16:07:46.111Z,72.60
2022-12-26T16:10:27.515Z,72.88
2022-12-26T16:13:22.894Z,73.52
2022-12-26T16:21:24.626Z,73.76
2022-12-26T16:23:53.703Z,73.29
2022-12-26T17:09:07.051Z,74.96
2022-12-26T17:11:36.228Z,74.53
2022-12-26T17:14:05.933Z,74.81
2022-12-26T17:24:25.368Z,75.01
2022-12-26T17:30:20.718Z,75.34
2022-12-26T17:32:48.155Z,75.30
2022-12-26T17:35:26.363Z,74.61
2022-12-26T17:38:00.918Z,74.74
2022-12-26T17:40:33.396Z,75.91
2022-12-26T17:43:12.152Z,75.74
2022-12-26T17:46:03.767Z,75.62
2022-12-26T17:48:31.012Z,75.39
2022-12-26T17:51:04.357Z,75.64
2022-12-26T17:53:43.059Z,76.43
2022-12-26T18:00:28.831Z,75.99
2022-12-26T18:03:12.404Z,75.88
2022-12-26T18:05:40.001Z,76.50
2022-12-26T18:33:29.974Z,77.17
2022-12-26T18:35:56.594Z,77.72
2022-12-26T18:38:23.189Z,77.92
2022-12-26T18:40:54.865Z,77.47
2022-12-26T18:43:21.463Z,77.32
2022-12-26T19:53:03.724Z,77.64
2022-12-26T19:58:56.177Z,76.92
2022-12-26T20:31:33.181Z,78.54
2022-12-26T20:34:00.410Z,77.81
2022-12-26T20:36:29.599Z,78.03
2022-12-26T20:38:59.817Z,78.01
2022-12-26T20:41:28.218Z,77.52
2022-12-26T21:06:32.763Z,75.46
2022-12-26T21:16:58.976Z,75.23
2022-12-26T21:19:28.396Z,74.83
2022-12-26T21:28:47.119Z,74.84
2022-12-26T21:31:13.688Z,74.96
2022-12-26T21:33:44.710Z,75.48
2022-12-26T21:36:13.447Z,76.08
2022-12-26T21:38:40.940Z,76.35
2022-12-26T21:44:08.961Z,75.48
2022-12-26T21:46:35.584Z,75.42
2022-12-26T21:49:02.246Z,74.99
2022-12-26T21:58:01.020Z,74.02
2022-12-26T22:00:27.627Z,74.72
2022-12-26T22:05:57.578Z,74.32
2022-12-26T22:08:24.198Z,74.19
2022-12-26T22:11:35.779Z,73.99
2022-12-26T22:14:02.489Z,74.04
2022-12-26T22:16:30.011Z,73.92
2022-12-26T22:18:56.744Z,73.83
2022-12-26T23:54:30.843Z,73.44
2022-12-26T23:56:58.288Z,73.94
2022-12-26T23:59:47.162Z,73.75
